createdAt,value
2023-01-15T00:01:24.183Z,4.50
2023-01-15T00:03:51.447Z,4.60
2023-01-15T00:06:18.812Z,5.27
2023-01-15T00:08:46.120Z,4.70
2023-01-15T00:11:13.439Z,4.40
2023-01-15T00:13:40.802Z,4.77
2023-01-15T00:16:13.367Z,4.73
2023-01-15T00:18:40.686Z,5.03
2023-01-15T00:21:09.003Z,4.80
2023-01-15T00:23:54.924Z,5.30
2023-01-15T00:26:41.895Z,4.93
2023-01-15T00:29:08.972Z,5.30
2023-01-15T00:31:36.332Z,5.73
2023-01-15T00:34:03.706Z,5.20
2023-01-15T00:36:31.418Z,5.50
2023-01-15T00:38:58.519Z,5.40
2023-01-15T00:41:25.742Z,5.80
2023-01-15T00:43:53.135Z,5.70
2023-01-15T00:46:20.664Z,5.53
2023-01-15T00:48:47.834Z,5.57
2023-01-15T00:51:14.983Z,5.23
2023-01-15T00:53:42.109Z,5.70
2023-01-15T00:56:09.298Z,4.30
2023-01-15T00:58:36.679Z,5.20
2023-01-15T01:01:04.021Z,4.90
2023-01-15T01:03:31.179Z,5.17
2023-01-15T01:06:02.038Z,4.47
2023-01-15T01:08:29.668Z,5.13
2023-01-15T01:11:03.648Z,5.70
2023-01-15T01:13:30.756Z,4.50
2023-01-15T01:15:57.998Z,5.20
2023-01-15T01:18:25.165Z,5.10
2023-01-15T01:20:52.615Z,4.93
2023-01-15T01:23:20.282Z,4.77
2023-01-15T01:25:47.716Z,4.67
2023-01-15T01:28:15.044Z,5.10
2023-01-15T01:30:42.303Z,4.70
2023-01-15T01:33:09.525Z,4.40
2023-01-15T01:35:36.912Z,4.83
2023-01-15T01:38:04.118Z,4.30
2023-01-15T01:40:31.254Z,4.37
2023-01-15T01:42:58.383Z,5.37
2023-01-15T01:45:27.046Z,4.90
2023-01-15T01:47:56.586Z,4.60
2023-01-15T01:50:24.121Z,4.03
2023-01-15T01:52:54.705Z,4.73
2023-01-15T01:55:23.537Z,5.00
2023-01-15T01:57:52.464Z,4.70
2023-01-15T02:00:20.238Z,4.67
2023-01-15T02:02:48.470Z,4.83
2023-01-15T02:05:20.691Z,4.70
2023-01-15T02:07:47.972Z,4.67
2023-01-15T02:10:16.365Z,4.50
2023-01-15T02:12:47.103Z,4.33
2023-01-15T02:15:14.198Z,4.97
2023-01-15T02:17:44.533Z,4.10
2023-01-15T02:20:11.668Z,4.40
2023-01-15T02:22:57.616Z,4.40
2023-01-15T02:25:43.575Z,4.93
2023-01-15T02:28:16.707Z,3.90
2023-01-15T02:30:47.643Z,4.57
2023-01-15T02:33:17.823Z,4.53
2023-01-15T02:36:00.845Z,4.60
2023-01-15T02:38:31.438Z,4.43
2023-01-15T02:40:59.960Z,4.83
2023-01-15T02:43:28.452Z,4.27
2023-01-15T02:45:57.679Z,4.13
2023-01-15T02:48:27.859Z,4.03
2023-01-15T02:50:57.187Z,3.90
2023-01-15T02:53:28.387Z,4.37
2023-01-15T02:55:58.532Z,4.20
2023-01-15T02:58:28.850Z,3.43
2023-01-15T03:00:57.328Z,4.60
2023-01-15T03:03:35.077Z,4.07
2023-01-15T03:06:05.529Z,4.57
2023-01-15T03:08:32.738Z,4.20
2023-01-15T03:11:09.396Z,4.50
2023-01-15T03:13:45.827Z,3.97
2023-01-15T03:16:37.212Z,4.53
2023-01-15T03:19:23.185Z,4.47
2023-01-15T03:21:50.386Z,4.70
2023-01-15T03:24:22.101Z,4.47
2023-01-15T03:26:49.202Z,4.37
2023-01-15T03:29:16.631Z,4.53
2023-01-15T03:31:44.813Z,4.80
2023-01-15T03:34:12.581Z,4.40
2023-01-15T03:36:39.842Z,4.30
2023-01-15T03:39:07.156Z,4.50
2023-01-15T03:41:34.298Z,4.43
2023-01-15T03:44:16.501Z,4.10
2023-01-15T03:46:52.784Z,3.43
2023-01-15T03:49:24.011Z,3.87
2023-01-15T03:52:03.053Z,4.13
2023-01-15T03:54:44.524Z,4.53
2023-01-15T03:57:14.496Z,4.27
2023-01-15T03:59:48.057Z,3.73
2023-01-15T04:02:16.545Z,4.40
2023-01-15T04:04:44.497Z,4.57
2023-01-15T04:07:11.829Z,3.90
2023-01-15T04:09:39.668Z,3.97
2023-01-15T04:12:07.399Z,4.00
2023-01-15T04:14:34.817Z,4.30
2023-01-15T04:17:01.921Z,4.10
2023-01-15T04:19:29.064Z,3.80
2023-01-15T04:21:56.232Z,3.77
2023-01-15T04:24:23.358Z,3.97
2023-01-15T04:26:50.488Z,3.97
2023-01-15T04:29:17.636Z,3.60
2023-01-15T04:31:44.756Z,3.90
2023-01-15T04:34:11.838Z,3.90
2023-01-15T04:36:39.200Z,4.40
2023-01-15T04:39:06.443Z,3.50
2023-01-15T04:41:52.239Z,3.73
2023-01-15T04:44:19.319Z,4.03
2023-01-15T04:46:47.884Z,4.20
2023-01-15T04:49:18.781Z,4.50
2023-01-15T04:51:46.295Z,4.80
2023-01-15T04:54:14.571Z,4.40
2023-01-15T04:56:43.164Z,4.63
2023-01-15T04:59:10.658Z,3.57
2023-01-15T05:01:37.874Z,3.97
2023-01-15T05:04:05.472Z,4.13
2023-01-15T05:06:32.711Z,3.40
2023-01-15T05:09:00.487Z,3.73
2023-01-15T05:11:28.211Z,3.17
2023-01-15T05:13:55.497Z,3.80
2023-01-15T05:16:26.927Z,3.40
2023-01-15T05:18:55.170Z,3.90
2023-01-15T05:21:23.778Z,3.60
2023-01-15T05:23:51.982Z,3.70
2023-01-15T05:26:19.899Z,3.67
2023-01-15T05:28:47.339Z,3.80
2023-01-15T05:31:15.722Z,3.60
2023-01-15T05:33:43.031Z,4.03
2023-01-15T05:36:12.317Z,3.67
2023-01-15T05:38:40.198Z,3.43
2023-01-15T05:41:28.162Z,3.53
2023-01-15T05:44:00.805Z,4.37
2023-01-15T05:46:28.025Z,3.50
2023-01-15T05:48:55.154Z,3.60
2023-01-15T05:51:22.274Z,3.80
2023-01-15T05:53:49.374Z,3.57
2023-01-15T05:56:16.476Z,3.70
2023-01-15T05:58:43.841Z,4.40
2023-01-15T06:01:11.843Z,3.83
2023-01-15T06:03:39.023Z,4.10
2023-01-15T06:06:06.221Z,4.10
2023-01-15T06:08:33.347Z,3.70
2023-01-15T06:11:00.460Z,4.03
2023-01-15T06:13:27.560Z,3.93
2023-01-15T06:15:54.758Z,3.90
2023-01-15T06:18:23.982Z,3.60
2023-01-15T06:20:51.133Z,3.80
2023-01-15T06:23:18.969Z,4.10
2023-01-15T06:25:46.358Z,4.20
2023-01-15T06:28:13.614Z,3.43
2023-01-15T06:30:41.203Z,3.77
2023-01-15T06:33:08.360Z,3.70
2023-01-15T06:35:35.922Z,3.20
2023-01-15T06:38:03.006Z,3.73
2023-01-15T06:40:30.186Z,3.43
2023-01-15T06:43:18.681Z,3.70
2023-01-15T06:46:04.466Z,3.70
2023-01-15T06:48:31.892Z,4.33
2023-01-15T06:50:59.735Z,3.97
2023-01-15T06:53:27.002Z,3.57
2023-01-15T06:55:54.160Z,3.97
2023-01-15T06:58:24.004Z,4.10
2023-01-15T07:00:55.824Z,4.20
2023-01-15T07:03:23.847Z,3.50
2023-01-15T07:05:50.999Z,4.73
2023-01-15T07:08:18.163Z,3.80
2023-01-15T07:10:45.334Z,3.90
2023-01-15T07:13:12.414Z,3.30
2023-01-15T07:15:40.659Z,3.77
2023-01-15T07:18:07.863Z,3.70
2023-01-15T07:20:35.013Z,3.43
2023-01-15T07:23:02.158Z,4.13
2023-01-15T07:25:29.324Z,3.63
2023-01-15T07:27:56.425Z,3.47
2023-01-15T07:30:23.722Z,3.90
2023-01-15T07:32:50.819Z,3.60
2023-01-15T07:35:17.913Z,3.37
2023-01-15T07:37:45.086Z,4.07
2023-01-15T07:40:13.173Z,3.87
2023-01-15T07:42:58.904Z,3.87
2023-01-15T07:45:44.930Z,4.60
2023-01-15T07:48:30.962Z,3.43
2023-01-15T07:50:58.066Z,3.43
2023-01-15T07:53:25.162Z,3.77
2023-01-15T07:55:52.290Z,3.87
2023-01-15T07:58:19.380Z,3.43
2023-01-15T08:00:46.503Z,3.60
2023-01-15T08:03:13.691Z,3.73
2023-01-15T08:05:40.798Z,3.07
2023-01-15T08:08:14.636Z,3.80
2023-01-15T08:11:01.711Z,3.90
2023-01-15T08:13:47.296Z,3.53
2023-01-15T08:16:14.451Z,3.60
2023-01-15T08:18:41.832Z,3.00
2023-01-15T08:21:13.913Z,3.30
2023-01-15T08:23:41.412Z,2.70
2023-01-15T08:26:08.519Z,3.20
2023-01-15T08:28:35.613Z,3.03
2023-01-15T08:31:02.813Z,2.50
2023-01-15T08:33:29.905Z,3.60
2023-01-15T08:35:57.980Z,3.17
2023-01-15T08:38:25.082Z,3.37
2023-01-15T08:40:58.632Z,3.30
2023-01-15T08:43:26.770Z,3.17
2023-01-15T08:45:54.330Z,3.40
2023-01-15T08:48:21.434Z,3.60
2023-01-15T08:50:50.443Z,3.13
2023-01-15T08:53:19.261Z,3.67
2023-01-15T08:55:47.303Z,3.73
2023-01-15T08:58:14.819Z,3.73
2023-01-15T09:00:42.485Z,3.10
2023-01-15T09:03:09.712Z,3.90
2023-01-15T09:05:39.804Z,3.53
2023-01-15T09:08:07.571Z,3.60
2023-01-15T09:10:35.511Z,3.77
2023-01-15T09:13:03.323Z,3.77
2023-01-15T09:15:31.472Z,4.43
2023-01-15T09:17:58.922Z,3.10
2023-01-15T09:20:26.338Z,3.63
2023-01-15T09:22:53.569Z,5.70
2023-01-15T09:25:23.897Z,4.50
2023-01-15T09:27:51.393Z,4.20
2023-01-15T09:30:19.797Z,3.90
2023-01-15T09:32:46.936Z,4.40
2023-01-15T09:35:14.083Z,4.10
2023-01-15T09:37:41.249Z,4.20
2023-01-15T09:40:09.833Z,4.13
2023-01-15T09:42:51.169Z,4.17
2023-01-15T09:45:21.182Z,4.00
2023-01-15T09:48:02.354Z,3.63
2023-01-15T09:50:29.411Z,3.53
2023-01-15T09:53:04.251Z,3.13
2023-01-15T09:55:33.324Z,3.80
2023-01-15T09:58:01.530Z,3.53
2023-01-15T10:00:30.440Z,3.80
2023-01-15T10:03:04.907Z,3.33
2023-01-15T10:05:45.103Z,3.80
2023-01-15T10:08:15.315Z,3.83
2023-01-15T10:10:48.919Z,3.73
2023-01-15T10:13:20.518Z,3.93
2023-01-15T10:15:48.067Z,4.13
2023-01-15T10:18:17.607Z,3.60
2023-01-15T10:20:48.531Z,4.17
2023-01-15T10:23:40.387Z,3.60
2023-01-15T10:26:16.632Z,3.70
2023-01-15T10:28:46.754Z,3.73
2023-01-15T10:31:19.841Z,3.70
2023-01-15T10:34:03.339Z,3.40
2023-01-15T10:36:36.843Z,3.53
2023-01-15T10:39:12.827Z,3.30
2023-01-15T10:41:48.785Z,3.60
2023-01-15T10:44:19.322Z,3.50
2023-01-15T10:46:48.902Z,3.50
2023-01-15T10:49:17.416Z,3.57
2023-01-15T10:51:55.567Z,3.47
2023-01-15T10:54:29.370Z,3.60
2023-01-15T10:57:01.975Z,3.40
2023-01-15T10:59:35.304Z,3.20
2023-01-15T11:02:03.750Z,3.97
2023-01-15T11:04:33.162Z,3.43
2023-01-15T11:07:01.176Z,4.10
2023-01-15T11:09:32.386Z,3.60
2023-01-15T11:12:19.771Z,3.30
2023-01-15T11:15:06.227Z,3.50
2023-01-15T11:17:55.768Z,2.90
2023-01-15T11:20:22.917Z,3.13
2023-01-15T11:22:50.397Z,3.50
2023-01-15T11:25:26.394Z,3.30
2023-01-15T11:27:53.889Z,3.80
2023-01-15T11:30:28.537Z,4.40
2023-01-15T11:32:57.140Z,5.40
2023-01-15T11:35:24.339Z,5.53
2023-01-15T11:37:51.497Z,5.57
2023-01-15T11:40:18.781Z,6.37
2023-01-15T11:43:08.217Z,5.27
2023-01-15T11:45:54.382Z,5.87
2023-01-15T11:48:41.472Z,6.90
2023-01-15T11:51:09.857Z,5.53
2023-01-15T11:53:42.781Z,6.63
2023-01-15T11:56:11.361Z,6.37
2023-01-15T11:58:58.125Z,5.07
2023-01-15T12:01:30.815Z,5.40
2023-01-15T12:03:59.148Z,5.17
2023-01-15T12:06:26.931Z,5.07
2023-01-15T12:08:56.761Z,5.13
2023-01-15T12:11:41.983Z,5.47
2023-01-15T12:14:28.858Z,5.23
2023-01-15T12:17:14.744Z,4.80
2023-01-15T12:19:57.813Z,4.70
2023-01-15T12:22:30.698Z,4.90
2023-01-15T12:25:15.947Z,4.70
2023-01-15T12:27:49.468Z,4.20
2023-01-15T12:30:37.771Z,5.20
2023-01-15T12:33:10.557Z,4.00
2023-01-15T12:35:50.135Z,4.37
2023-01-15T12:38:35.838Z,4.20
2023-01-15T12:41:07.217Z,3.90
2023-01-15T12:43:52.823Z,4.13
2023-01-15T12:46:23.753Z,3.90
2023-01-15T12:48:54.501Z,4.23
2023-01-15T12:51:26.960Z,5.10
2023-01-15T12:53:56.526Z,4.27
2023-01-15T12:56:30.074Z,4.30
2023-01-15T12:58:59.955Z,4.00
2023-01-15T13:01:39.177Z,4.40
2023-01-15T13:04:11.328Z,4.07
2023-01-15T13:06:40.343Z,3.90
2023-01-15T13:09:26.223Z,3.63
2023-01-15T13:11:53.325Z,3.77
2023-01-15T13:14:21.662Z,3.93
2023-01-15T13:17:07.991Z,4.00
2023-01-15T13:19:46.473Z,3.47
2023-01-15T13:22:23.035Z,3.40
2023-01-15T13:25:18.930Z,3.83
2023-01-15T13:27:52.258Z,3.47
2023-01-15T13:30:32.885Z,4.43
2023-01-15T13:33:07.603Z,3.80
2023-01-15T13:35:36.811Z,4.07
2023-01-15T13:38:05.589Z,3.43
2023-01-15T13:40:35.019Z,5.17
2023-01-15T13:43:03.391Z,4.07
2023-01-15T13:45:40.601Z,3.93
2023-01-15T13:48:11.906Z,4.20
2023-01-15T13:50:43.611Z,3.73
2023-01-15T13:53:13.589Z,4.20
2023-01-15T13:55:43.564Z,3.83
2023-01-15T13:58:21.812Z,3.63
2023-01-15T14:00:48.984Z,4.43
2023-01-15T14:03:26.752Z,3.83
2023-01-15T14:05:58.387Z,3.53
2023-01-15T14:08:29.885Z,4.70
2023-01-15T14:10:57.748Z,4.20
2023-01-15T14:13:27.636Z,4.07
2023-01-15T14:16:13.462Z,4.97
2023-01-15T14:18:46.515Z,4.13
2023-01-15T14:21:16.667Z,5.17
2023-01-15T14:24:02.380Z,4.77
2023-01-15T14:26:43.951Z,3.97
2023-01-15T14:29:30.432Z,4.30
2023-01-15T14:32:00.753Z,4.27
2023-01-15T14:34:30.204Z,4.10
2023-01-15T14:37:04.205Z,3.30
2023-01-15T14:39:31.393Z,3.80
2023-01-15T14:42:21.873Z,3.90
2023-01-15T14:44:56.000Z,4.07
2023-01-15T14:47:34.646Z,4.10
2023-01-15T14:50:21.683Z,3.80
2023-01-15T14:52:49.809Z,3.67
2023-01-15T14:55:18.031Z,3.40
2023-01-15T15:04:45.185Z,3.50
2023-01-15T15:07:55.336Z,3.87
2023-01-15T15:10:37.612Z,3.40
2023-01-15T15:13:31.101Z,3.27
2023-01-15T15:16:20.070Z,3.00
2023-01-15T15:19:13.969Z,2.90
2023-01-15T15:21:43.756Z,3.60
2023-01-15T15:24:23.183Z,3.87
2023-01-15T15:26:50.061Z,4.40
2023-01-15T15:29:19.065Z,4.00
2023-01-15T15:31:51.349Z,4.00
2023-01-15T15:34:40.257Z,4.37
2023-01-15T15:37:24.305Z,4.00
2023-01-15T15:40:12.610Z,3.60
2023-01-15T15:43:01.681Z,3.63
2023-01-15T15:45:49.348Z,3.77
2023-01-15T15:48:39.363Z,3.93
2023-01-15T15:51:30.213Z,3.43
2023-01-15T15:54:04.085Z,2.70
2023-01-15T15:56:33.195Z,3.03
2023-01-15T15:59:00.360Z,2.60
2023-01-15T16:01:27.345Z,2.20
2023-01-15T16:03:55.077Z,2.17
2023-01-15T16:06:27.667Z,2.27
2023-01-15T16:09:04.465Z,2.50
2023-01-15T16:11:33.146Z,2.50
2023-01-15T16:14:03.961Z,2.87
2023-01-15T16:16:31.399Z,3.60
2023-01-15T16:19:00.199Z,3.20
2023-01-15T16:21:30.095Z,3.13
2023-01-15T16:23:59.239Z,3.33
2023-01-15T16:26:53.072Z,3.60
2023-01-15T16:29:25.870Z,3.33
2023-01-15T16:31:55.969Z,3.60
2023-01-15T16:34:26.667Z,3.57
2023-01-15T16:36:53.392Z,3.57
2023-01-15T16:39:25.816Z,3.70
2023-01-15T16:41:57.560Z,3.57
2023-01-15T16:44:35.016Z,2.90
2023-01-15T16:47:02.456Z,3.23
2023-01-15T16:49:31.998Z,3.40
2023-01-15T16:52:01.205Z,3.20
2023-01-15T16:54:30.460Z,2.57
2023-01-15T16:57:24.187Z,2.63
2023-01-15T17:00:02.661Z,2.60
2023-01-15T17:02:40.697Z,2.80
2023-01-15T17:05:24.240Z,2.87
2023-01-15T17:07:53.956Z,2.30
2023-01-15T17:10:23.264Z,2.60
2023-01-15T17:12:50.535Z,2.20
2023-01-15T17:15:17.780Z,2.40
2023-01-15T17:17:49.388Z,2.10
2023-01-15T17:20:18.996Z,2.00
2023-01-15T17:22:48.183Z,2.40
2023-01-15T17:25:32.128Z,2.47
2023-01-15T17:28:00.293Z,2.13
2023-01-15T17:30:31.343Z,2.33
2023-01-15T17:33:01.938Z,2.00
2023-01-15T17:35:30.927Z,2.00
2023-01-15T17:37:57.781Z,2.33
2023-01-15T17:40:24.852Z,2.30
2023-01-15T17:42:51.668Z,2.70
2023-01-15T17:45:19.927Z,1.80
2023-01-15T17:47:46.687Z,2.30
2023-01-15T17:50:14.580Z,1.90
2023-01-15T17:52:42.733Z,2.37
2023-01-15T17:55:30.475Z,2.73
2023-01-15T17:58:16.501Z,2.13
2023-01-15T18:01:02.036Z,2.23
2023-01-15T18:03:47.899Z,2.40
2023-01-15T18:06:16.099Z,1.70
2023-01-15T18:08:47.566Z,2.40
2023-01-15T18:11:14.348Z,2.30
2023-01-15T18:13:42.015Z,2.50
2023-01-15T18:16:09.610Z,2.60
2023-01-15T18:18:36.627Z,2.13
2023-01-15T18:21:04.158Z,1.60
2023-01-15T18:23:33.051Z,2.13
2023-01-15T18:26:03.934Z,2.40
2023-01-15T18:28:34.423Z,2.00
2023-01-15T18:31:02.509Z,1.80
2023-01-15T18:33:29.807Z,2.30
2023-01-15T18:36:13.676Z,2.23
2023-01-15T18:38:46.169Z,1.80
2023-01-15T18:41:36.158Z,1.80
2023-01-15T18:44:26.372Z,2.27
2023-01-15T18:46:56.791Z,1.83
2023-01-15T18:49:23.705Z,1.83
2023-01-15T18:52:09.477Z,1.30
2023-01-15T18:54:36.855Z,1.70
2023-01-15T18:57:04.331Z,1.80
2023-01-15T18:59:31.084Z,2.10
2023-01-15T19:01:59.004Z,1.80
2023-01-15T19:04:26.441Z,1.40
2023-01-15T19:06:53.234Z,1.27
2023-01-15T19:09:23.826Z,1.30
2023-01-15T19:11:51.866Z,1.33
2023-01-15T19:14:38.296Z,2.13
2023-01-15T19:17:23.720Z,1.57
2023-01-15T19:19:50.385Z,1.60
2023-01-15T19:22:35.633Z,1.67
2023-01-15T19:25:02.436Z,1.43
2023-01-15T19:27:29.238Z,1.40
2023-01-15T19:29:56.222Z,1.20
2023-01-15T19:32:22.871Z,1.33
2023-01-15T19:34:50.514Z,1.50
2023-01-15T19:37:17.178Z,1.43
2023-01-15T19:39:43.961Z,1.40
2023-01-15T19:42:31.651Z,1.30
2023-01-15T19:45:17.315Z,1.37
2023-01-15T19:48:02.841Z,1.50
2023-01-15T19:50:42.000Z,1.20
2023-01-15T19:53:09.687Z,1.33
2023-01-15T19:55:40.330Z,0.93
2023-01-15T19:58:09.079Z,1.30
2023-01-15T20:00:37.369Z,1.10
2023-01-15T20:03:05.199Z,1.00
2023-01-15T20:05:32.825Z,1.10
2023-01-15T20:07:59.550Z,1.13
2023-01-15T20:10:28.414Z,1.13
2023-01-15T20:13:13.766Z,0.93
2023-01-15T20:15:42.758Z,1.00
2023-01-15T20:18:09.642Z,0.93
2023-01-15T20:20:37.899Z,0.70
2023-01-15T20:23:05.210Z,0.90
2023-01-15T20:25:32.278Z,0.90
2023-01-15T20:28:02.329Z,0.83
2023-01-15T20:30:29.600Z,1.03
2023-01-15T20:32:59.839Z,0.80
2023-01-15T20:35:31.217Z,1.07
2023-01-15T20:37:58.315Z,0.83
2023-01-15T20:40:25.801Z,1.17
2023-01-15T20:43:11.925Z,1.30
2023-01-15T20:45:39.766Z,1.10
2023-01-15T20:48:12.729Z,1.20
2023-01-15T20:51:00.442Z,1.20
2023-01-15T20:53:33.612Z,1.10
2023-01-15T20:56:01.565Z,1.50
2023-01-15T20:58:28.440Z,1.00
2023-01-15T21:01:03.227Z,1.20
2023-01-15T21:03:30.004Z,1.50
2023-01-15T21:05:57.831Z,1.10
2023-01-15T21:08:24.702Z,1.20
2023-01-15T21:10:52.761Z,1.23
2023-01-15T21:13:23.543Z,1.03
2023-01-15T21:15:58.205Z,1.20
2023-01-15T21:18:29.588Z,1.10
2023-01-15T21:20:56.299Z,1.00
2023-01-15T21:23:23.976Z,1.00
2023-01-15T21:25:50.720Z,0.90
2023-01-15T21:28:17.572Z,1.30
2023-01-15T21:30:44.814Z,1.13
2023-01-15T21:33:11.619Z,1.00
2023-01-15T21:35:40.335Z,0.93
2023-01-15T21:38:08.195Z,1.10
2023-01-15T21:40:37.809Z,1.20
2023-01-15T21:43:24.138Z,1.00
2023-01-15T21:45:51.509Z,1.00
2023-01-15T21:48:18.961Z,1.00
2023-01-15T21:50:45.807Z,0.97
2023-01-15T21:53:12.499Z,0.90
2023-01-15T21:55:39.181Z,0.70
2023-01-15T21:58:05.874Z,1.00
2023-01-15T22:00:32.606Z,0.90
2023-01-15T22:02:59.387Z,0.83
2023-01-15T22:05:26.143Z,0.90
2023-01-15T22:07:53.148Z,0.67
2023-01-15T22:10:19.908Z,1.03
2023-01-15T22:12:46.602Z,1.20
2023-01-15T22:15:15.623Z,0.90
2023-01-15T22:17:42.699Z,0.70
2023-01-15T22:20:10.181Z,0.90
2023-01-15T22:22:39.274Z,0.93
2023-01-15T22:25:08.447Z,0.97
2023-01-15T22:27:40.490Z,1.17
2023-01-15T22:30:09.580Z,1.10
2023-01-15T22:32:36.336Z,1.27
2023-01-15T22:35:03.658Z,0.80
2023-01-15T22:37:30.348Z,0.80
2023-01-15T22:39:57.030Z,1.10
2023-01-15T22:42:31.218Z,0.77
2023-01-15T22:45:00.104Z,0.97
2023-01-15T22:47:28.520Z,0.77
2023-01-15T22:49:55.281Z,0.70
2023-01-15T22:52:25.112Z,0.70
2023-01-15T22:54:52.138Z,0.67
2023-01-15T22:57:18.960Z,0.63
2023-01-15T22:59:46.285Z,0.80
2023-01-15T23:02:13.259Z,0.60
2023-01-15T23:04:40.139Z,0.63
2023-01-15T23:07:06.874Z,0.70
2023-01-15T23:09:33.567Z,0.50
2023-01-15T23:12:00.350Z,0.63
2023-01-15T23:14:27.437Z,0.80
2023-01-15T23:16:54.096Z,0.60
2023-01-15T23:19:21.361Z,0.70
2023-01-15T23:21:48.072Z,0.60
2023-01-15T23:24:14.869Z,0.70
2023-01-15T23:26:41.590Z,0.70
2023-01-15T23:29:08.305Z,0.63
2023-01-15T23:31:35.280Z,0.60
2023-01-15T23:34:02.121Z,0.73
2023-01-15T23:36:28.816Z,0.70
2023-01-15T23:38:55.599Z,0.67
2023-01-15T23:41:44.091Z,0.60
2023-01-15T23:44:37.778Z,0.80
2023-01-15T23:47:05.922Z,0.60
2023-01-15T23:49:33.199Z,0.40
2023-01-15T23:51:59.928Z,0.50
2023-01-15T23:54:30.018Z,0.63
2023-01-15T23:56:57.919Z,0.70
2023-01-15T23:59:25.128Z,0.70
